Time;durP1;ratioP1;P1;durP2;ratioP2;P2;SDS_P1;SDS_P2;PMS_P1;PMS_P2;Temp;Humidity;BMP_temperature;BMP_pressure;BME280_temperature;BME280_humidity;BME280_pressure;Samples;Min_cycle;Max_cycle;Signal;HPM_P1;HPM_P2
2021/11/25 00:01:52;;;;;;;7.72;1.98;;;23.60;22.60;;;;;;5072969;28;21399;-64
2021/11/25 00:04:19;;;;;;;5.70;1.50;;;23.60;22.60;;;;;;5069807;28;20125;-65
2021/11/25 00:06:45;;;;;;;15.60;2.38;;;23.50;22.60;;;;;;5087729;28;20085;-64
2021/11/25 00:09:12;;;;;;;13.73;2.10;;;23.40;22.80;;;;;;5071298;28;20130;-65
2021/11/25 00:11:38;;;;;;;13.80;1.67;;;23.30;23.00;;;;;;5090471;28;20095;-64
2021/11/25 00:14:05;;;;;;;16.38;1.90;;;23.20;23.40;;;;;;5073577;28;20073;-64
2021/11/25 00:16:31;;;;;;;6.85;1.83;;;23.10;24.10;;;;;;5070295;28;20092;-64
2021/11/25 00:18:58;;;;;;;22.27;2.15;;;22.90;24.70;;;;;;5069195;28;20127;-63
2021/11/25 00:21:25;;;;;;;18.88;2.50;;;22.80;25.30;;;;;;5078069;28;20077;-62
2021/11/25 00:23:51;;;;;;;14.27;2.88;;;22.70;25.80;;;;;;5068750;28;21426;-65
2021/11/25 00:26:18;;;;;;;18.90;2.95;;;22.60;25.90;;;;;;5072922;28;20073;-65
2021/11/25 00:28:45;;;;;;;18.15;2.22;;;22.50;26.20;;;;;;5070903;28;20083;-64
2021/11/25 00:31:11;;;;;;;17.77;3.25;;;22.40;26.40;;;;;;5088333;28;20501;-64
2021/11/25 00:33:39;;;;;;;16.02;2.28;;;22.30;26.30;;;;;;5071574;28;20073;-64
2021/11/25 00:36:06;;;;;;;16.98;2.30;;;22.20;26.40;;;;;;5086726;28;20100;-64
2021/11/25 00:38:33;;;;;;;18.48;1.90;;;22.10;26.60;;;;;;5072786;28;20096;-63
2021/11/25 00:40:59;;;;;;;21.92;2.75;;;22.00;26.50;;;;;;5082145;28;20088;-63
2021/11/25 00:43:26;;;;;;;13.15;2.20;;;21.90;26.60;;;;;;5077841;28;20113;-64
2021/11/25 00:45:52;;;;;;;9.52;2.00;;;21.80;26.70;;;;;;5076795;28;20071;-63
2021/11/25 00:48:19;;;;;;;22.67;2.00;;;21.70;26.80;;;;;;5090661;28;20167;-65
2021/11/25 00:50:46;;;;;;;25.65;3.00;;;21.70;26.60;;;;;;5071080;28;20439;-64
2021/11/25 00:53:15;;;;;;;13.40;1.70;;;21.60;26.40;;;;;;5068094;28;20226;-65
2021/11/25 00:55:42;;;;;;;19.15;2.10;;;21.50;26.60;;;;;;5086410;28;20069;-64
2021/11/25 00:58:09;;;;;;;17.10;1.75;;;21.40;26.80;;;;;;5077004;28;20226;-65
2021/11/25 01:00:35;;;;;;;8.57;1.48;;;21.30;27.00;;;;;;5062559;28;20080;-63
2021/11/25 01:03:02;;;;;;;22.23;2.22;;;21.30;27.30;;;;;;5065750;28;20076;-65
2021/11/25 01:05:28;;;;;;;20.35;2.33;;;21.20;27.40;;;;;;5072740;28;20077;-64
2021/11/25 01:07:55;;;;;;;11.23;2.25;;;21.10;27.40;;;;;;5072388;28;20471;-64
2021/11/25 01:10:23;;;;;;;19.20;2.10;;;21.00;27.70;;;;;;5071764;28;20072;-66
2021/11/25 01:12:51;;;;;;;21.40;2.30;;;20.90;28.00;;;;;;5056673;28;20069;-64
2021/11/25 01:15:20;;;;;;;12.40;1.92;;;20.80;28.00;;;;;;5072487;28;20069;-69
2021/11/25 01:17:47;;;;;;;17.33;2.03;;;20.80;28.10;;;;;;5082600;28;20085;-68
2021/11/25 01:20:17;;;;;;;19.80;2.17;;;20.70;28.20;;;;;;5084884;28;20072;-69
2021/11/25 01:22:44;;;;;;;24.92;2.47;;;20.60;28.10;;;;;;5087345;28;20531;-69
2021/11/25 01:25:11;;;;;;;21.40;3.15;;;20.50;28.20;;;;;;5078419;28;20072;-69
2021/11/25 01:27:38;;;;;;;16.75;2.42;;;20.50;28.40;;;;;;5074614;28;20065;-68
2021/11/25 01:30:07;;;;;;;18.77;3.40;;;20.40;28.50;;;;;;5085223;28;20091;-69
2021/11/25 01:32:33;;;;;;;23.15;3.38;;;20.30;28.60;;;;;;5075716;28;20462;-68
2021/11/25 01:35:00;;;;;;;24.67;3.50;;;20.20;28.80;;;;;;5076373;28;20198;-69
2021/11/25 01:37:28;;;;;;;21.90;3.35;;;20.10;28.40;;;;;;5092055;28;20080;-70
2021/11/25 01:39:55;;;;;;;23.13;2.78;;;20.00;28.50;;;;;;5073138;28;20116;-70
2021/11/25 01:42:22;;;;;;;25.00;3.05;;;20.00;28.30;;;;;;5085019;28;20128;-67
2021/11/25 01:44:49;;;;;;;18.92;3.10;;;20.00;28.40;;;;;;5074850;28;20069;-69
2021/11/25 01:47:15;;;;;;;31.48;2.95;;;19.90;28.10;;;;;;5093826;28;20149;-68
2021/11/25 01:49:42;;;;;;;12.90;2.67;;;19.90;28.30;;;;;;5071344;28;20099;-67
2021/11/25 01:52:10;;;;;;;30.70;3.10;;;19.80;28.10;;;;;;5092934;28;20534;-68
2021/11/25 01:54:36;;;;;;;22.42;2.65;;;19.80;27.80;;;;;;5078768;28;20081;-69
2021/11/25 01:57:03;;;;;;;19.35;3.15;;;19.70;27.90;;;;;;5072272;28;20150;-67
2021/11/25 01:59:29;;;;;;;20.70;2.45;;;19.70;27.80;;;;;;5084234;28;20157;-67
2021/11/25 02:01:56;;;;;;;27.90;3.33;;;19.70;28.20;;;;;;5087952;28;20080;-66
2021/11/25 02:04:23;;;;;;;;;;;19.60;27.60;;;;;;5072398;28;20178;-67
2021/11/25 02:06:50;;;;;;;20.00;3.03;;;19.60;27.60;;;;;;5090316;28;19965;-68
2021/11/25 02:09:16;;;;;;;31.00;3.40;;;19.50;27.70;;;;;;5076007;28;20076;-66
2021/11/25 02:11:43;;;;;;;18.88;2.65;;;19.50;27.60;;;;;;5071720;28;20084;-67
2021/11/25 02:14:09;;;;;;;27.65;3.28;;;19.50;27.70;;;;;;5058990;28;20538;-66
2021/11/25 02:16:37;;;;;;;17.45;3.15;;;19.40;27.70;;;;;;5086343;28;20103;-66
2021/11/25 02:19:04;;;;;;;29.13;2.72;;;19.30;27.90;;;;;;5073478;28;20097;-64
2021/11/25 02:21:30;;;;;;;28.88;3.85;;;19.20;28.00;;;;;;5068625;28;20073;-59
2021/11/25 02:23:57;;;;;;;30.20;4.03;;;19.20;28.50;;;;;;5084996;28;20096;-65
2021/11/25 02:26:23;;;;;;;35.53;3.58;;;19.10;28.20;;;;;;5072177;28;20186;-65
2021/11/25 02:28:50;;;;;;;33.15;3.08;;;19.00;28.60;;;;;;5068625;28;20176;-66
2021/11/25 02:31:16;;;;;;;20.52;2.90;;;19.00;27.80;;;;;;5075355;28;20575;-68
2021/11/25 02:33:44;;;;;;;29.42;2.92;;;19.00;27.60;;;;;;5070282;28;20586;-68
2021/11/25 02:36:11;;;;;;;27.13;3.33;;;18.90;28.00;;;;;;5069857;28;20166;-66
2021/11/25 02:38:37;;;;;;;28.60;3.13;;;18.90;27.40;;;;;;5070449;28;20093;-66
2021/11/25 02:41:05;;;;;;;27.83;3.05;;;18.80;27.10;;;;;;5079363;28;20540;-65
2021/11/25 02:43:33;;;;;;;27.05;3.40;;;18.80;26.50;;;;;;5086944;28;20089;-65
2021/11/25 02:46:09;;;;;;;43.13;4.22;;;18.80;26.40;;;;;;5071755;28;20159;-66
2021/11/25 02:48:42;;;;;;;30.95;3.17;;;18.80;26.50;;;;;;5091867;28;20205;-66
2021/11/25 02:51:10;;;;;;;31.55;4.53;;;18.80;26.50;;;;;;5070985;28;20171;-68
2021/11/25 02:53:36;;;;;;;23.27;3.67;;;18.80;26.30;;;;;;5070511;28;20104;-65
2021/11/25 02:56:06;;;;;;;30.00;4.10;;;18.70;26.50;;;;;;5069782;28;20089;-68
2021/11/25 02:58:33;;;;;;;42.17;3.90;;;18.70;26.50;;;;;;5066094;28;20124;-66
2021/11/25 03:01:05;;;;;;;27.27;3.72;;;18.70;26.50;;;;;;5084451;28;20069;-66
2021/11/25 03:03:31;;;;;;;35.20;4.22;;;18.50;26.50;;;;;;5079332;28;21083;-68
2021/11/25 03:05:57;;;;;;;;;;;18.50;26.50;;;;;;5067305;28;20095;-68
2021/11/25 03:08:23;;;;;;;26.45;3.40;;;18.40;26.40;;;;;;5091669;28;19956;-66
2021/11/25 03:10:57;;;;;;;21.92;3.20;;;18.40;26.30;;;;;;5073140;28;20441;-67
2021/11/25 03:13:25;;;;;;;25.58;2.90;;;18.30;25.80;;;;;;5054559;28;20073;-66
2021/11/25 03:15:52;;;;;;;29.70;3.92;;;18.30;25.80;;;;;;5074539;28;20080;-66
2021/11/25 03:18:19;;;;;;;35.75;3.53;;;18.30;25.60;;;;;;5069675;28;20188;-66
2021/11/25 03:20:50;;;;;;;26.48;3.53;;;18.30;25.30;;;;;;5082693;28;20450;-67
2021/11/25 03:23:18;;;;;;;27.75;3.72;;;18.30;24.90;;;;;;5070536;28;20069;-69
2021/11/25 03:25:47;;;;;;;33.80;3.55;;;18.30;24.70;;;;;;5070379;28;20073;-65
2021/11/25 03:28:14;;;;;;;21.77;3.33;;;18.30;24.40;;;;;;5070999;28;20159;-66
2021/11/25 03:30:41;;;;;;;34.03;3.83;;;18.30;24.00;;;;;;5070345;28;20069;-64
2021/11/25 03:33:09;;;;;;;29.85;3.33;;;18.30;24.00;;;;;;5071688;28;20090;-67
2021/11/25 03:35:37;;;;;;;30.95;2.83;;;18.20;24.00;;;;;;5072723;28;20574;-66
2021/11/25 03:38:04;;;;;;;19.08;3.03;;;18.30;23.50;;;;;;5059430;28;20097;-68
2021/11/25 03:40:31;;;;;;;24.20;3.08;;;18.30;23.50;;;;;;5064996;28;20430;-68
2021/11/25 03:42:58;;;;;;;20.33;2.40;;;18.30;23.10;;;;;;5081966;28;20073;-66
2021/11/25 03:45:25;;;;;;;25.50;2.90;;;18.30;22.80;;;;;;5068136;28;20081;-67
2021/11/25 03:47:51;;;;;;;24.00;2.67;;;18.30;22.50;;;;;;5073000;28;20505;-66
2021/11/25 03:50:18;;;;;;;30.85;2.45;;;18.40;22.60;;;;;;5079823;28;20903;-66
2021/11/25 03:52:44;;;;;;;;;;;18.40;22.80;;;;;;5076782;28;20519;-67
2021/11/25 03:55:14;;;;;;;19.73;2.35;;;18.30;22.20;;;;;;5065112;28;20147;-66
2021/11/25 03:57:41;;;;;;;14.25;2.25;;;18.40;22.10;;;;;;5077664;28;20081;-69
2021/11/25 04:00:11;;;;;;;41.95;3.00;;;18.30;21.80;;;;;;5077056;28;20570;-65
2021/11/25 04:02:40;;;;;;;30.15;2.50;;;18.30;21.60;;;;;;5080666;28;20215;-67
2021/11/25 04:05:08;;;;;;;26.60;2.33;;;18.30;21.50;;;;;;5072765;28;20213;-65
2021/11/25 04:07:35;;;;;;;25.77;1.80;;;18.40;21.70;;;;;;5073153;28;20515;-66
2021/11/25 04:10:01;;;;;;;15.07;2.15;;;18.30;21.70;;;;;;5072310;28;20072;-65
2021/11/25 04:12:27;;;;;;;21.50;2.28;;;18.30;21.60;;;;;;5068294;28;20435;-65
2021/11/25 04:14:53;;;;;;;;;;;18.30;21.60;;;;;;5069544;28;20081;-67
2021/11/25 04:17:21;;;;;;;12.75;1.70;;;18.30;21.80;;;;;;5076026;28;20411;-66
2021/11/25 04:19:49;;;;;;;10.32;1.33;;;18.20;21.80;;;;;;5083256;28;20089;-66
2021/11/25 04:22:18;;;;;;;16.13;2.10;;;18.20;21.90;;;;;;5072603;28;20069;-67
2021/11/25 04:24:44;;;;;;;14.82;2.25;;;18.20;22.00;;;;;;5062473;28;20295;-65
2021/11/25 04:27:11;;;;;;;17.55;2.28;;;18.10;22.10;;;;;;5085822;28;20080;-67
2021/11/25 04:29:38;;;;;;;11.95;2.13;;;18.10;22.20;;;;;;5070334;28;20073;-65
2021/11/25 04:37:34;;;;;;;19.67;1.90;;;17.90;22.30;;;;;;5070579;28;20080;-66
2021/11/25 04:40:00;;;;;;;11.80;1.73;;;17.90;22.40;;;;;;5069429;28;20092;-68
2021/11/25 04:42:26;;;;;;;;;;;17.90;22.40;;;;;;5072753;28;20067;-66
2021/11/25 04:44:53;;;;;;;14.73;2.47;;;17.80;22.50;;;;;;5071750;28;20006;-71
2021/11/25 04:47:19;;;;;;;;;;;17.70;22.80;;;;;;5073439;28;20110;-70
2021/11/25 04:49:45;;;;;;;10.52;1.50;;;17.70;23.10;;;;;;5071018;28;19977;-69
2021/11/25 04:52:11;;;;;;;;;;;17.70;23.10;;;;;;5070408;28;20080;-68
2021/11/25 04:54:38;;;;;;;14.68;2.05;;;17.60;23.40;;;;;;5070159;28;19957;-69
2021/11/25 04:57:05;;;;;;;13.90;2.00;;;17.60;23.80;;;;;;5068495;28;20116;-70
2021/11/25 04:59:32;;;;;;;16.52;2.42;;;17.50;24.00;;;;;;5068205;28;20180;-69
2021/11/25 05:01:58;;;;;;;;;;;17.40;24.10;;;;;;5068042;28;20081;-68
2021/11/25 05:04:24;;;;;;;12.05;2.20;;;17.40;24.20;;;;;;5068427;28;19973;-70
2021/11/25 05:06:50;;;;;;;;;;;17.30;24.10;;;;;;5059996;28;20069;-69
2021/11/25 05:09:18;;;;;;;14.68;2.10;;;17.20;24.40;;;;;;5068214;28;19972;-67
2021/11/25 05:11:44;;;;;;;20.02;2.45;;;17.10;24.40;;;;;;5070301;28;20077;-68
2021/11/25 05:14:10;;;;;;;;;;;17.10;25.00;;;;;;5089239;28;20092;-67
2021/11/25 05:16:37;;;;;;;15.32;2.33;;;17.00;25.20;;;;;;5071769;28;19957;-64
2021/11/25 05:19:03;;;;;;;;;;;16.90;25.40;;;;;;5072493;28;20089;-67
2021/11/25 05:21:29;;;;;;;12.68;1.92;;;16.80;25.50;;;;;;5077636;28;19957;-66
2021/11/25 05:23:55;;;;;;;;;;;16.80;25.40;;;;;;5072299;28;20073;-67
2021/11/25 05:26:22;;;;;;;11.32;1.88;;;16.70;25.50;;;;;;5068147;28;19973;-66
2021/11/25 05:28:48;;;;;;;16.25;2.10;;;16.70;25.60;;;;;;5084763;28;20528;-66
2021/11/25 05:31:14;;;;;;;;;;;16.60;25.30;;;;;;5068581;28;20132;-69
2021/11/25 05:33:40;;;;;;;16.48;2.13;;;16.60;25.10;;;;;;5071569;28;19956;-67
2021/11/25 05:36:06;;;;;;;;;;;16.60;24.50;;;;;;5065153;28;20227;-68
2021/11/25 05:38:33;;;;;;;13.38;1.55;;;16.60;24.20;;;;;;5067037;28;19980;-68
2021/11/25 05:40:59;;;;;;;16.83;1.80;;;16.60;23.90;;;;;;5057945;28;20174;-67
2021/11/25 05:43:25;;;;;;;;;;;16.60;23.40;;;;;;5058662;28;20085;-67
2021/11/25 05:45:54;;;;;;;7.70;1.70;;;16.60;23.20;;;;;;5067292;28;20430;-65
2021/11/25 05:48:22;;;;;;;12.35;1.77;;;16.70;22.70;;;;;;5069347;28;20081;-67
2021/11/25 05:50:50;;;;;;;17.20;2.22;;;16.70;22.50;;;;;;5067722;28;20498;-67
2021/11/25 05:53:20;;;;;;;14.35;2.10;;;16.80;22.50;;;;;;5065572;28;20163;-68
2021/11/25 05:55:50;;;;;;;14.65;1.90;;;16.90;22.40;;;;;;5084265;28;20126;-68
2021/11/25 05:58:17;;;;;;;14.45;2.10;;;16.90;22.30;;;;;;5053371;28;20202;-66
2021/11/25 06:00:44;;;;;;;19.88;2.50;;;16.90;22.10;;;;;;5068460;28;20069;-67
2021/11/25 06:03:11;;;;;;;20.20;2.05;;;17.00;22.20;;;;;;5064006;28;20085;-67
2021/11/25 06:05:38;;;;;;;15.00;1.70;;;17.00;22.50;;;;;;5071485;28;20065;-68
2021/11/25 06:08:04;;;;;;;17.45;2.22;;;16.90;22.80;;;;;;5069438;28;20432;-67
2021/11/25 06:10:31;;;;;;;17.10;1.95;;;16.90;23.00;;;;;;5072148;28;20073;-66
2021/11/25 06:12:59;;;;;;;17.17;1.98;;;16.80;23.20;;;;;;5069254;28;20074;-66
2021/11/25 06:15:25;;;;;;;22.60;2.42;;;16.70;23.20;;;;;;5053923;28;20486;-68
2021/11/25 06:17:52;;;;;;;;;;;16.70;23.40;;;;;;5069462;28;20446;-68
2021/11/25 06:20:19;;;;;;;19.35;2.20;;;16.70;23.90;;;;;;5076239;28;20002;-66
2021/11/25 06:22:48;;;;;;;18.42;2.13;;;16.60;23.50;;;;;;5078232;28;20089;-67
2021/11/25 06:25:17;;;;;;;20.38;1.55;;;16.60;23.30;;;;;;5067401;28;20100;-67
2021/11/25 06:27:44;;;;;;;16.02;1.85;;;16.60;23.40;;;;;;5057077;28;20099;-66
2021/11/25 06:30:13;;;;;;;14.10;2.00;;;16.60;23.40;;;;;;5060869;28;20081;-66
2021/11/25 06:32:41;;;;;;;16.83;1.98;;;16.60;23.30;;;;;;5052158;28;20779;-66
2021/11/25 06:35:12;;;;;;;9.70;1.75;;;16.60;23.30;;;;;;5068413;28;20121;-65
2021/11/25 06:37:40;;;;;;;17.55;1.67;;;16.60;23.20;;;;;;5038769;28;20134;-66
2021/11/25 06:40:10;;;;;;;16.98;1.48;;;16.60;22.90;;;;;;5059524;28;20085;-65
2021/11/25 06:42:37;;;;;;;10.65;2.10;;;16.70;23.00;;;;;;5070956;28;20084;-68
2021/11/25 06:45:05;;;;;;;16.38;1.63;;;16.70;22.80;;;;;;5070822;28;20072;-71
2021/11/25 06:47:31;;;;;;;21.73;1.70;;;16.70;22.90;;;;;;5064549;28;20603;-68
2021/11/25 06:49:58;;;;;;;23.65;1.88;;;16.70;23.00;;;;;;5055816;28;20135;-69
2021/11/25 06:52:24;;;;;;;17.20;1.73;;;16.70;23.20;;;;;;5069127;28;20077;-68
2021/11/25 06:54:50;;;;;;;;;;;16.70;23.30;;;;;;5057810;28;20081;-68
2021/11/25 06:57:17;;;;;;;14.57;1.40;;;16.70;23.30;;;;;;5071000;28;19965;-67
2021/11/25 06:59:43;;;;;;;;;;;16.70;23.70;;;;;;5069663;28;20082;-69
2021/11/25 07:02:09;;;;;;;11.65;1.92;;;16.70;24.00;;;;;;5060513;28;19957;-69
2021/11/25 07:04:35;;;;;;;11.65;1.88;;;16.70;24.30;;;;;;5066700;28;20092;-65
2021/11/25 07:07:03;;;;;;;;;;;16.60;24.50;;;;;;5066945;28;20127;-68
2021/11/25 07:09:29;;;;;;;14.13;1.48;;;16.60;24.80;;;;;;5056499;28;19964;-66
2021/11/25 07:11:56;;;;;;;14.52;1.92;;;16.60;25.40;;;;;;5055880;28;20547;-66
2021/11/25 07:14:22;;;;;;;11.43;1.60;;;16.50;25.20;;;;;;5067736;28;20127;-68
2021/11/25 07:16:48;;;;;;;;;;;16.50;25.50;;;;;;5063898;28;20155;-66
2021/11/25 07:19:14;;;;;;;12.68;1.80;;;16.50;25.70;;;;;;5070515;28;20018;-65
2021/11/25 07:21:41;;;;;;;29.90;11.18;;;16.40;26.20;;;;;;5050181;28;20077;-68
2021/11/25 07:24:07;;;;;;;;;;;16.40;26.80;;;;;;5057047;28;20184;-67
2021/11/25 07:26:33;;;;;;;11.68;3.22;;;16.30;27.00;;;;;;5057714;28;19957;-67
2021/11/25 07:29:00;;;;;;;21.13;4.32;;;16.30;27.80;;;;;;5065878;28;20081;-68
2021/11/25 07:31:29;;;;;;;23.60;8.82;;;16.10;28.30;;;;;;5054025;28;20616;-68
2021/11/25 07:33:56;;;;;;;34.13;7.63;;;16.10;28.90;;;;;;5057139;28;20078;-66
2021/11/25 07:36:24;;;;;;;44.47;9.65;;;16.00;29.60;;;;;;5074410;28;20652;-67
2021/11/25 07:38:50;;;;;;;35.75;7.50;;;15.90;30.20;;;;;;5075531;28;20150;-67
2021/11/25 07:41:17;;;;;;;29.50;6.88;;;15.80;30.80;;;;;;5078251;28;20069;-68
2021/11/25 07:43:44;;;;;;;31.48;7.38;;;15.70;31.10;;;;;;5075470;28;20085;-68
2021/11/25 07:46:10;;;;;;;33.58;7.80;;;15.60;31.20;;;;;;5069084;28;20073;-68
2021/11/25 07:48:38;;;;;;;;;;;15.60;31.30;;;;;;5075936;28;20077;-69
2021/11/25 07:51:05;;;;;;;37.10;8.90;;;15.50;31.10;;;;;;5076098;28;19973;-66
2021/11/25 07:53:31;;;;;;;45.45;9.38;;;15.40;31.20;;;;;;5068821;28;20088;-67
2021/11/25 07:55:57;;;;;;;;;;;15.50;31.30;;;;;;5070404;28;20116;-68
2021/11/25 07:58:24;;;;;;;51.60;10.48;;;15.40;31.30;;;;;;5061566;28;20000;-67
2021/11/25 08:00:50;;;;;;;;;;;15.30;31.40;;;;;;5067473;28;21073;-67
2021/11/25 08:03:16;;;;;;;35.17;7.50;;;15.30;31.70;;;;;;5071130;28;20021;-67
2021/11/25 08:05:42;;;;;;;31.90;5.25;;;15.30;31.60;;;;;;5057910;28;20134;-67
2021/11/25 08:08:09;;;;;;;;;;;15.20;31.40;;;;;;5070599;28;20099;-69
2021/11/25 08:10:36;;;;;;;31.77;5.33;;;15.20;31.30;;;;;;5060583;28;20055;-67
2021/11/25 08:13:04;;;;;;;39.90;5.43;;;15.20;31.30;;;;;;5057957;28;20097;-67
2021/11/25 08:15:32;;;;;;;23.50;3.35;;;15.20;31.10;;;;;;5068525;28;20441;-67
2021/11/25 08:17:58;;;;;;;23.33;3.95;;;15.20;30.70;;;;;;5076700;28;20084;-68
2021/11/25 08:20:25;;;;;;;;;;;15.20;30.60;;;;;;5075870;28;20462;-68
2021/11/25 08:22:52;;;;;;;27.80;5.23;;;15.20;30.50;;;;;;5069058;28;19964;-67
2021/11/25 08:25:20;;;;;;;21.13;3.30;;;15.20;30.50;;;;;;5073880;28;20571;-69
2021/11/25 08:27:50;;;;;;;25.65;3.75;;;15.20;30.60;;;;;;5074795;28;20077;-66
2021/11/25 08:30:16;;;;;;;13.18;2.05;;;15.20;30.80;;;;;;5070841;28;20534;-67
2021/11/25 08:32:43;;;;;;;35.60;5.03;;;15.20;31.20;;;;;;5073925;28;20523;-69
2021/11/25 08:35:11;;;;;;;17.33;3.70;;;15.20;31.70;;;;;;5073962;28;20152;-68
2021/11/25 08:37:39;;;;;;;24.88;4.10;;;15.20;31.90;;;;;;5052400;28;20182;-69
2021/11/25 08:40:06;;;;;;;20.73;2.70;;;15.20;32.00;;;;;;5074005;28;20092;-66
2021/11/25 08:42:33;;;;;;;27.80;2.53;;;15.20;32.20;;;;;;5059908;28;20125;-68
2021/11/25 08:44:59;;;;;;;;;;;15.20;31.90;;;;;;5056669;28;20077;-68
2021/11/25 08:47:25;;;;;;;17.45;1.88;;;15.20;32.20;;;;;;5074986;28;19967;-68
2021/11/25 08:49:51;;;;;;;21.60;2.10;;;15.10;32.20;;;;;;5074226;28;20100;-66
2021/11/25 08:52:18;;;;;;;;;;;15.10;32.50;;;;;;5085730;28;20076;-66
2021/11/25 08:54:44;;;;;;;29.63;2.20;;;15.10;32.60;;;;;;5068106;28;20441;-68
2021/11/25 08:57:10;;;;;;;;;;;15.00;32.60;;;;;;5077439;28;20129;-67
2021/11/25 08:59:37;;;;;;;35.13;2.47;;;15.00;32.60;;;;;;5069510;28;20417;-68
2021/11/25 09:02:03;;;;;;;18.30;2.03;;;15.00;32.20;;;;;;5069057;28;20084;-69
2021/11/25 09:04:30;;;;;;;;;;;15.00;32.20;;;;;;5070228;28;20222;-69
2021/11/25 09:06:57;;;;;;;30.87;2.00;;;15.00;32.00;;;;;;5068310;28;19963;-68
2021/11/25 09:09:24;;;;;;;24.45;1.83;;;15.00;31.70;;;;;;5055467;28;20330;-69
2021/11/25 09:11:51;;;;;;;19.92;2.42;;;15.00;31.70;;;;;;5057531;28;20681;-66
2021/11/25 09:14:17;;;;;;;22.13;1.83;;;15.00;31.60;;;;;;5072943;28;20077;-69
2021/11/25 09:16:44;;;;;;;23.48;1.92;;;15.00;31.40;;;;;;5067247;28;20088;-68
2021/11/25 09:19:10;;;;;;;26.30;1.75;;;15.00;31.60;;;;;;5064972;28;20161;-70
2021/11/25 09:21:37;;;;;;;32.88;2.22;;;15.00;32.00;;;;;;5083223;28;20093;-69
2021/11/25 09:24:06;;;;;;;;;;;14.90;32.00;;;;;;5058056;28;20439;-67
2021/11/25 09:26:34;;;;;;;15.85;1.90;;;14.90;32.00;;;;;;5070130;28;20121;-68
2021/11/25 09:29:02;;;;;;;11.27;1.65;;;14.90;31.80;;;;;;5073869;28;20088;-68
2021/11/25 09:31:30;;;;;;;17.00;2.33;;;14.80;31.70;;;;;;5067828;28;20096;-69
2021/11/25 09:33:58;;;;;;;20.70;2.08;;;14.80;31.70;;;;;;5059578;28;20083;-69
2021/11/25 09:36:26;;;;;;;27.60;1.58;;;14.80;31.80;;;;;;5062187;28;20112;-68
2021/11/25 09:38:54;;;;;;;21.58;2.17;;;14.80;31.90;;;;;;5060537;28;20214;-69
2021/11/25 09:41:21;;;;;;;22.33;1.50;;;14.80;31.80;;;;;;5078701;28;20085;-68
2021/11/25 09:43:47;;;;;;;31.55;1.73;;;14.70;31.60;;;;;;5063237;28;20702;-68
2021/11/25 09:46:13;;;;;;;;;;;14.70;31.40;;;;;;5073108;28;20081;-68
2021/11/25 09:48:40;;;;;;;19.52;1.80;;;14.70;31.30;;;;;;5072644;28;19963;-69
2021/11/25 09:51:08;;;;;;;15.70;2.00;;;14.70;31.30;;;;;;5072534;28;20154;-66
2021/11/25 09:53:36;;;;;;;18.52;2.38;;;14.70;31.00;;;;;;5080693;28;20081;-70
2021/11/25 09:56:05;;;;;;;19.73;1.70;;;14.70;30.50;;;;;;5077520;28;20069;-68
2021/11/25 09:58:34;;;;;;;18.30;1.30;;;14.70;30.30;;;;;;5079570;28;20084;-68
2021/11/25 10:01:07;;;;;;;12.70;1.70;;;14.70;30.10;;;;;;5077753;28;20073;-68
2021/11/25 10:03:36;;;;;;;17.48;1.52;;;14.70;30.10;;;;;;5073519;28;20120;-68
2021/11/25 10:06:03;;;;;;;16.10;1.70;;;14.70;30.20;;;;;;5058396;28;20101;-69
2021/11/25 10:08:37;;;;;;;20.55;1.90;;;14.70;30.40;;;;;;5072239;28;20753;-68
2021/11/25 10:11:11;;;;;;;12.05;1.40;;;14.80;30.70;;;;;;5060637;28;20523;-68
2021/11/25 10:13:43;;;;;;;14.85;1.55;;;14.70;30.80;;;;;;5085611;28;20092;-69
2021/11/25 10:16:14;;;;;;;19.77;2.22;;;14.70;31.00;;;;;;5073262;28;20083;-68
2021/11/25 10:18:41;;;;;;;20.98;1.40;;;14.70;31.30;;;;;;5077238;28;20101;-68
2021/11/25 10:21:09;;;;;;;17.83;1.30;;;14.70;31.40;;;;;;5059982;28;20068;-66
2021/11/25 10:23:37;;;;;;;12.77;1.58;;;14.60;31.50;;;;;;5073462;28;20635;-68
2021/11/25 10:26:16;;;;;;;22.67;1.65;;;14.60;31.80;;;;;;5077299;28;20080;-68
2021/11/25 10:28:47;;;;;;;10.35;1.30;;;14.60;32.10;;;;;;5060195;28;20073;-68
2021/11/25 10:31:25;;;;;;;11.23;1.25;;;14.60;32.30;;;;;;5059070;28;20096;-66
2021/11/25 10:33:58;;;;;;;12.20;1.42;;;14.60;32.60;;;;;;5086420;28;20454;-67
2021/11/25 10:41:52;;;;;;;17.85;2.10;;;14.40;33.20;;;;;;5076301;28;20120;-66
2021/11/25 10:44:23;;;;;;;19.42;2.15;;;14.40;33.60;;;;;;5056340;28;20480;-65
2021/11/25 10:46:55;;;;;;;16.98;1.98;;;14.30;33.60;;;;;;5069782;28;20430;-64
2021/11/25 10:49:43;;;;;;;11.13;1.77;;;14.10;33.30;;;;;;5078468;28;20069;-67
2021/11/25 10:52:13;;;;;;;14.00;1.70;;;14.10;33.20;;;;;;5075935;28;20085;-67
2021/11/25 10:54:50;;;;;;;16.10;1.75;;;14.00;32.80;;;;;;5075704;28;20107;-66
2021/11/25 10:57:17;;;;;;;24.15;2.05;;;14.00;32.80;;;;;;5079165;28;20116;-69
2021/11/25 10:59:50;;;;;;;13.18;1.60;;;14.00;32.50;;;;;;5070915;28;20930;-68
2021/11/25 11:02:29;;;;;;;15.57;1.83;;;14.00;32.50;;;;;;5072671;28;20089;-67
2021/11/25 11:05:01;;;;;;;10.45;1.38;;;13.90;32.70;;;;;;5076927;28;20481;-69
2021/11/25 11:07:31;;;;;;;11.98;1.55;;;13.90;32.80;;;;;;5059035;28;20092;-67
2021/11/25 11:09:59;;;;;;;11.75;1.92;;;13.90;32.80;;;;;;5075197;28;20423;-69
2021/11/25 11:12:35;;;;;;;11.13;1.27;;;13.90;32.60;;;;;;5059430;28;20069;-68
2021/11/25 11:15:14;;;;;;;15.75;1.60;;;13.90;32.70;;;;;;5077730;28;20080;-67
2021/11/25 11:18:42;;;;;;;10.63;1.30;;;13.90;32.80;;;;;;5077799;28;20463;-67
2021/11/25 11:20:47;;;;;;;6.15;1.42;;;13.90;32.90;;;;;;5071458;28;20527;-69
2021/11/25 11:23:19;;;;;;;11.63;1.42;;;13.90;33.00;;;;;;5071070;28;20077;-67
2021/11/25 11:25:47;;;;;;;9.18;1.35;;;13.90;33.00;;;;;;5085608;28;20167;-68
2021/11/25 11:28:14;;;;;;;11.52;1.13;;;13.90;33.20;;;;;;5069936;28;20084;-66
2021/11/25 11:30:41;;;;;;;6.75;1.02;;;13.90;33.20;;;;;;5075581;28;20085;-68
2021/11/25 11:33:11;;;;;;;18.52;1.35;;;13.90;33.40;;;;;;5067856;28;20079;-67
2021/11/25 11:35:40;;;;;;;10.02;1.27;;;13.90;33.60;;;;;;5073875;28;20132;-67
2021/11/25 11:38:08;;;;;;;19.00;1.70;;;13.90;33.40;;;;;;5074874;28;20096;-67
2021/11/25 11:40:39;;;;;;;8.35;1.67;;;13.90;33.20;;;;;;5074500;28;20073;-67
2021/11/25 11:43:06;;;;;;;8.75;1.33;;;13.90;33.30;;;;;;5070257;28;20073;-67
2021/11/25 11:45:37;;;;;;;8.45;1.50;;;13.90;33.30;;;;;;5068939;28;21350;-69
2021/11/25 11:48:06;;;;;;;11.93;1.70;;;13.90;33.30;;;;;;5058154;28;20131;-68
2021/11/25 11:50:43;;;;;;;9.75;1.10;;;14.00;33.30;;;;;;5066693;28;20089;-67
2021/11/25 11:53:13;;;;;;;;;;;14.00;33.00;;;;;;5076334;28;20066;-68
2021/11/25 11:56:03;;;;;;;8.23;1.30;;;14.00;33.20;;;;;;5078013;28;19977;-68
2021/11/25 11:58:47;;;;;;;4.00;1.00;;;14.00;33.30;;;;;;5073023;28;20399;-69
2021/11/25 12:01:17;;;;;;;9.40;1.20;;;14.00;33.50;;;;;;5060504;28;20095;-67
2021/11/25 12:03:53;;;;;;;7.90;1.10;;;14.00;33.90;;;;;;5069687;28;20430;-69
2021/11/25 12:06:37;;;;;;;10.70;1.20;;;13.90;33.90;;;;;;5074390;28;20076;-67
2021/11/25 12:09:23;;;;;;;13.70;1.30;;;13.90;34.00;;;;;;5074100;28;20162;-69
2021/11/25 12:12:07;;;;;;;11.77;1.40;;;13.80;34.30;;;;;;5041150;28;20088;-68
2021/11/25 12:14:34;;;;;;;18.88;1.60;;;13.90;34.30;;;;;;5076045;28;20072;-68
2021/11/25 12:17:11;;;;;;;18.52;1.92;;;13.70;34.20;;;;;;5075172;28;20610;-68
2021/11/25 12:19:43;;;;;;;18.00;1.48;;;13.80;34.60;;;;;;5074708;28;20175;-68
2021/11/25 12:22:13;;;;;;;9.32;1.45;;;13.70;34.70;;;;;;5083767;28;20080;-68
2021/11/25 12:24:44;;;;;;;16.60;2.22;;;13.70;35.00;;;;;;5082449;28;20123;-68
2021/11/25 12:27:21;;;;;;;20.20;2.47;;;13.70;35.10;;;;;;5056493;28;20257;-68
2021/11/25 12:30:00;;;;;;;14.05;2.00;;;13.60;34.70;;;;;;5084147;28;20149;-68
2021/11/25 12:32:44;;;;;;;12.73;1.77;;;13.60;34.60;;;;;;5074084;28;20163;-69
2021/11/25 12:35:14;;;;;;;14.43;1.63;;;13.60;34.60;;;;;;5082310;28;20550;-67
2021/11/25 12:37:52;;;;;;;12.65;2.55;;;13.50;34.60;;;;;;5084446;28;20081;-68
2021/11/25 12:40:22;;;;;;;13.02;1.88;;;13.50;34.50;;;;;;5074755;28;20108;-67
2021/11/25 12:42:56;;;;;;;10.82;1.83;;;13.50;34.20;;;;;;5084934;28;20554;-67
2021/11/25 12:45:29;;;;;;;13.13;2.10;;;13.40;34.60;;;;;;5076083;28;20469;-67
2021/11/25 12:48:08;;;;;;;23.52;2.05;;;13.50;34.20;;;;;;5068163;28;20073;-66
2021/11/25 12:50:43;;;;;;;16.67;2.20;;;13.40;34.20;;;;;;5078558;28;20427;-65
2021/11/25 12:53:16;;;;;;;20.52;2.67;;;13.40;34.40;;;;;;5075685;28;20101;-65
2021/11/25 12:55:47;;;;;;;15.20;1.90;;;13.40;34.20;;;;;;5081859;28;20100;-66
2021/11/25 12:58:14;;;;;;;12.93;1.77;;;13.40;34.20;;;;;;5067888;28;20114;-67
2021/11/25 13:00:44;;;;;;;9.13;1.40;;;13.40;34.10;;;;;;5070156;28;20075;-68
2021/11/25 13:03:14;;;;;;;15.73;1.98;;;13.40;34.10;;;;;;5057003;28;20512;-69
2021/11/25 13:05:43;;;;;;;12.65;1.75;;;13.30;34.10;;;;;;5074669;28;20094;-70